sensor_id;sensor_type;location;lat;lon;timestamp;pressure;altitude;pressure_sealevel;temperature;humidity
61757;BME280;57225;61.460;24.060;2023-01-27T00:01:44;100879.72;;;-5.40;100.00
61757;BME280;57225;61.460;24.060;2023-01-27T00:04:28;100877.28;;;-5.46;100.00
61757;BME280;57225;61.460;24.060;2023-01-27T00:07:12;100883.53;;;-5.46;100.00
61757;BME280;57225;61.460;24.060;2023-01-27T00:09:57;100884.06;;;-5.44;100.00
61757;BME280;57225;61.460;24.060;2023-01-27T00:12:42;100898.16;;;-5.42;100.00
61757;BME280;57225;61.460;24.060;2023-01-27T00:15:46;100888.97;;;-5.46;100.00
61757;BME280;57225;61.460;24.060;2023-01-27T00:18:30;100905.81;;;-5.49;100.00
61757;BME280;57225;61.460;24.060;2023-01-27T00:21:14;100904.16;;;-5.50;100.00
61757;BME280;57225;61.460;24.060;2023-01-27T00:24:17;100906.63;;;-5.48;100.00
61757;BME280;57225;61.460;24.060;2023-01-27T00:27:20;100909.59;;;-5.50;100.00
61757;BME280;57225;61.460;24.060;2023-01-27T00:30:06;100904.16;;;-5.50;100.00
61757;BME280;57225;61.460;24.060;2023-01-27T00:32:50;100907.19;;;-5.51;100.00
61757;BME280;57225;61.460;24.060;2023-01-27T00:36:02;100902.88;;;-5.57;100.00
61757;BME280;57225;61.460;24.060;2023-01-27T00:38:47;100902.03;;;-5.58;100.00
61757;BME280;57225;61.460;24.060;2023-01-27T00:41:32;100909.63;;;-5.55;100.00
61757;BME280;57225;61.460;24.060;2023-01-27T00:44:17;100909.38;;;-5.58;100.00
61757;BME280;57225;61.460;24.060;2023-01-27T00:47:01;100907.50;;;-5.63;100.00
61757;BME280;57225;61.460;24.060;2023-01-27T00:49:46;100917.78;;;-5.60;100.00
61757;BME280;57225;61.460;24.060;2023-01-27T00:52:30;100907.47;;;-5.58;100.00
61757;BME280;57225;61.460;24.060;2023-01-27T00:55:15;100919.94;;;-5.52;100.00
61757;BME280;57225;61.460;24.060;2023-01-27T00:58:00;100906.91;;;-5.55;100.00
61757;BME280;57225;61.460;24.060;2023-01-27T01:00:45;100913.97;;;-5.54;100.00
61757;BME280;57225;61.460;24.060;2023-01-27T01:03:31;100917.25;;;-5.62;100.00
61757;BME280;57225;61.460;24.060;2023-01-27T01:06:17;100931.38;;;-5.60;100.00
61757;BME280;57225;61.460;24.060;2023-01-27T01:09:02;100935.16;;;-5.61;100.00
61757;BME280;57225;61.460;24.060;2023-01-27T01:11:46;100932.72;;;-5.62;100.00
61757;BME280;57225;61.460;24.060;2023-01-27T01:14:31;100925.41;;;-5.57;100.00
61757;BME280;57225;61.460;24.060;2023-01-27T01:17:15;100938.16;;;-5.68;100.00
61757;BME280;57225;61.460;24.060;2023-01-27T01:20:00;100949.31;;;-5.69;100.00
61757;BME280;57225;61.460;24.060;2023-01-27T01:22:44;100943.88;;;-5.74;100.00
61757;BME280;57225;61.460;24.060;2023-01-27T01:25:28;100934.66;;;-5.78;100.00
61757;BME280;57225;61.460;24.060;2023-01-27T01:28:13;100937.94;;;-5.86;100.00
61757;BME280;57225;61.460;24.060;2023-01-27T01:31:15;100939.56;;;-5.80;100.00
61757;BME280;57225;61.460;24.060;2023-01-27T01:34:00;100940.38;;;-5.80;100.00
61757;BME280;57225;61.460;24.060;2023-01-27T01:36:44;100935.22;;;-5.81;100.00
61757;BME280;57225;61.460;24.060;2023-01-27T01:39:29;100946.63;;;-5.84;100.00
61757;BME280;57225;61.460;24.060;2023-01-27T01:42:14;100952.09;;;-5.89;100.00
61757;BME280;57225;61.460;24.060;2023-01-27T01:48:29;100958.31;;;-5.94;100.00
61757;BME280;57225;61.460;24.060;2023-01-27T01:51:27;100962.97;;;-5.94;100.00
61757;BME280;57225;61.460;24.060;2023-01-27T01:54:17;100943.41;;;-5.96;100.00
61757;BME280;57225;61.460;24.060;2023-01-27T01:57:30;100948.84;;;-6.01;100.00
61757;BME280;57225;61.460;24.060;2023-01-27T02:00:17;100957.00;;;-6.01;100.00
61757;BME280;57225;61.460;24.060;2023-01-27T02:03:02;100957.28;;;-6.08;100.00
61757;BME280;57225;61.460;24.060;2023-01-27T02:05:47;100942.91;;;-6.14;100.00
61757;BME280;57225;61.460;24.060;2023-01-27T02:08:38;100955.34;;;-6.13;100.00
61757;BME280;57225;61.460;24.060;2023-01-27T02:11:23;100955.91;;;-6.16;100.00
61757;BME280;57225;61.460;24.060;2023-01-27T02:14:08;100954.56;;;-6.23;100.00
61757;BME280;57225;61.460;24.060;2023-01-27T02:16:54;100966.22;;;-6.23;100.00
61757;BME280;57225;61.460;24.060;2023-01-27T02:20:02;100969.75;;;-6.32;100.00
61757;BME280;57225;61.460;24.060;2023-01-27T02:29:10;100989.25;;;-6.45;100.00
61757;BME280;57225;61.460;24.060;2023-01-27T02:31:55;100986.81;;;-6.42;100.00
61757;BME280;57225;61.460;24.060;2023-01-27T02:34:41;100983.53;;;-6.44;100.00
61757;BME280;57225;61.460;24.060;2023-01-27T02:37:26;100987.88;;;-6.43;100.00
61757;BME280;57225;61.460;24.060;2023-01-27T02:40:11;100988.97;;;-6.49;100.00
61757;BME280;57225;61.460;24.060;2023-01-27T02:42:57;100994.94;;;-6.42;100.00
61757;BME280;57225;61.460;24.060;2023-01-27T02:45:41;100991.16;;;-6.36;100.00
61757;BME280;57225;61.460;24.060;2023-01-27T02:48:25;100998.22;;;-6.40;100.00
61757;BME280;57225;61.460;24.060;2023-01-27T02:51:10;100996.28;;;-6.50;100.00
61757;BME280;57225;61.460;24.060;2023-01-27T02:53:54;101000.63;;;-6.48;100.00
61757;BME280;57225;61.460;24.060;2023-01-27T02:56:39;100988.97;;;-6.59;100.00
61757;BME280;57225;61.460;24.060;2023-01-27T02:59:23;100987.34;;;-6.55;100.00
61757;BME280;57225;61.460;24.060;2023-01-27T03:02:07;100992.19;;;-6.57;100.00
61757;BME280;57225;61.460;24.060;2023-01-27T03:04:56;100984.34;;;-6.59;100.00
61757;BME280;57225;61.460;24.060;2023-01-27T03:07:40;100993.56;;;-6.55;100.00
61757;BME280;57225;61.460;24.060;2023-01-27T03:10:25;100994.38;;;-6.49;100.00
61757;BME280;57225;61.460;24.060;2023-01-27T03:13:09;100990.59;;;-6.48;100.00
61757;BME280;57225;61.460;24.060;2023-01-27T03:15:57;100982.47;;;-6.53;100.00
61757;BME280;57225;61.460;24.060;2023-01-27T03:19:00;100982.47;;;-6.58;100.00
61757;BME280;57225;61.460;24.060;2023-01-27T03:21:45;100977.56;;;-6.56;100.00
61757;BME280;57225;61.460;24.060;2023-01-27T03:24:33;100986.50;;;-6.61;100.00
61757;BME280;57225;61.460;24.060;2023-01-27T03:27:18;100988.09;;;-6.70;100.00
61757;BME280;57225;61.460;24.060;2023-01-27T03:30:03;100995.97;;;-6.73;100.00
61757;BME280;57225;61.460;24.060;2023-01-27T03:32:47;100998.13;;;-6.80;100.00
61757;BME280;57225;61.460;24.060;2023-01-27T03:35:36;100995.91;;;-6.88;100.00
61757;BME280;57225;61.460;24.060;2023-01-27T03:38:31;100998.59;;;-6.94;100.00
61757;BME280;57225;61.460;24.060;2023-01-27T03:41:34;101001.03;;;-7.02;100.00
61757;BME280;57225;61.460;24.060;2023-01-27T03:44:37;101002.38;;;-7.05;100.00
61757;BME280;57225;61.460;24.060;2023-01-27T03:47:40;100992.03;;;-7.13;100.00
61757;BME280;57225;61.460;24.060;2023-01-27T03:50:25;100997.19;;;-7.11;100.00
61757;BME280;57225;61.460;24.060;2023-01-27T03:53:20;100999.66;;;-7.05;100.00
61757;BME280;57225;61.460;24.060;2023-01-27T03:56:05;101010.75;;;-7.01;100.00
61757;BME280;57225;61.460;24.060;2023-01-27T03:58:49;101000.75;;;-7.01;100.00
61757;BME280;57225;61.460;24.060;2023-01-27T04:01:34;101003.44;;;-7.06;100.00
61757;BME280;57225;61.460;24.060;2023-01-27T04:04:18;101004.28;;;-6.95;100.00
61757;BME280;57225;61.460;24.060;2023-01-27T04:07:21;101017.63;;;-6.83;100.00
61757;BME280;57225;61.460;24.060;2023-01-27T04:10:07;101032.78;;;-6.82;100.00
61757;BME280;57225;61.460;24.060;2023-01-27T04:12:51;101026.59;;;-6.73;100.00
61757;BME280;57225;61.460;24.060;2023-01-27T04:15:36;101024.16;;;-6.74;100.00
61757;BME280;57225;61.460;24.060;2023-01-27T04:18:21;101012.22;;;-6.78;100.00
61757;BME280;57225;61.460;24.060;2023-01-27T04:21:05;101029.06;;;-6.71;100.00
61757;BME280;57225;61.460;24.060;2023-01-27T04:23:51;101024.72;;;-6.67;100.00
61757;BME280;57225;61.460;24.060;2023-01-27T04:26:35;101025.78;;;-6.63;100.00
61757;BME280;57225;61.460;24.060;2023-01-27T04:29:21;101027.97;;;-6.65;100.00
61757;BME280;57225;61.460;24.060;2023-01-27T04:32:08;101041.81;;;-6.62;100.00
61757;BME280;57225;61.460;24.060;2023-01-27T04:34:52;101023.31;;;-6.75;100.00
61757;BME280;57225;61.460;24.060;2023-01-27T04:37:37;101031.47;;;-6.75;100.00
61757;BME280;57225;61.460;24.060;2023-01-27T04:40:22;101032.84;;;-6.72;100.00
61757;BME280;57225;61.460;24.060;2023-01-27T04:43:06;101032.84;;;-6.72;100.00
61757;BME280;57225;61.460;24.060;2023-01-27T04:45:51;101031.19;;;-6.73;100.00
61757;BME280;57225;61.460;24.060;2023-01-27T04:48:35;101030.94;;;-6.67;100.00
61757;BME280;57225;61.460;24.060;2023-01-27T04:51:20;101018.72;;;-6.74;100.00
61757;BME280;57225;61.460;24.060;2023-01-27T04:54:04;101021.44;;;-6.69;100.00
61757;BME280;57225;61.460;24.060;2023-01-27T04:57:00;101033.66;;;-6.67;100.00
61757;BME280;57225;61.460;24.060;2023-01-27T04:59:46;101020.59;;;-6.80;100.00
61757;BME280;57225;61.460;24.060;2023-01-27T05:02:31;101020.59;;;-6.80;100.00
61757;BME280;57225;61.460;24.060;2023-01-27T05:05:15;101029.56;;;-6.69;100.00
61757;BME280;57225;61.460;24.060;2023-01-27T05:08:04;101043.16;;;-6.64;100.00
61757;BME280;57225;61.460;24.060;2023-01-27T05:10:49;101040.75;;;-6.51;100.00
61757;BME280;57225;61.460;24.060;2023-01-27T05:13:35;101041.84;;;-6.52;100.00
61757;BME280;57225;61.460;24.060;2023-01-27T05:16:22;101039.13;;;-6.52;100.00
61757;BME280;57225;61.460;24.060;2023-01-27T05:19:07;101044.00;;;-6.59;100.00
61757;BME280;57225;61.460;24.060;2023-01-27T05:21:52;101037.19;;;-6.66;100.00
61757;BME280;57225;61.460;24.060;2023-01-27T05:24:37;101041.22;;;-6.69;100.00
61757;BME280;57225;61.460;24.060;2023-01-27T05:27:21;101041.53;;;-6.60;100.00
61757;BME280;57225;61.460;24.060;2023-01-27T05:30:06;101051.84;;;-6.57;100.00
61757;BME280;57225;61.460;24.060;2023-01-27T05:32:50;101064.63;;;-6.47;100.00
61757;BME280;57225;61.460;24.060;2023-01-27T05:35:35;101064.03;;;-6.60;100.00
61757;BME280;57225;61.460;24.060;2023-01-27T05:38:19;101073.00;;;-6.54;100.00
61757;BME280;57225;61.460;24.060;2023-01-27T05:41:05;101067.00;;;-6.61;100.00
61757;BME280;57225;61.460;24.060;2023-01-27T05:43:52;101067.56;;;-6.59;100.00
61757;BME280;57225;61.460;24.060;2023-01-27T05:46:39;101066.50;;;-6.58;100.00
61757;BME280;57225;61.460;24.060;2023-01-27T05:49:23;101066.75;;;-6.65;100.00
61757;BME280;57225;61.460;24.060;2023-01-27T05:52:08;101074.06;;;-6.60;100.00
61757;BME280;57225;61.460;24.060;2023-01-27T05:54:52;101068.09;;;-6.67;100.00
61757;BME280;57225;61.460;24.060;2023-01-27T05:57:37;101071.03;;;-6.69;100.00
61757;BME280;57225;61.460;24.060;2023-01-27T06:00:21;101061.53;;;-6.76;100.00
61757;BME280;57225;61.460;24.060;2023-01-27T06:03:05;101074.53;;;-6.83;100.00
61757;BME280;57225;61.460;24.060;2023-01-27T06:05:56;101074.22;;;-6.87;100.00
61757;BME280;57225;61.460;24.060;2023-01-27T06:08:41;101073.94;;;-6.96;100.00
61757;BME280;57225;61.460;24.060;2023-01-27T06:11:26;101051.38;;;-7.06;100.00
61757;BME280;57225;61.460;24.060;2023-01-27T06:14:10;101061.94;;;-7.10;100.00
61757;BME280;57225;61.460;24.060;2023-01-27T06:16:55;101046.13;;;-7.28;100.00
61757;BME280;57225;61.460;24.060;2023-01-27T06:19:39;101066.22;;;-7.19;100.00
61757;BME280;57225;61.460;24.060;2023-01-27T06:22:24;101057.50;;;-7.26;100.00
61757;BME280;57225;61.460;24.060;2023-01-27T06:25:08;101063.44;;;-7.34;100.00
61757;BME280;57225;61.460;24.060;2023-01-27T06:27:54;101065.50;;;-7.46;100.00
61757;BME280;57225;61.460;24.060;2023-01-27T06:30:39;101071.44;;;-7.49;100.00
61757;BME280;57225;61.460;24.060;2023-01-27T06:33:23;101066.81;;;-7.54;100.00
61757;BME280;57225;61.460;24.060;2023-01-27T06:36:10;101074.63;;;-7.57;100.00
61757;BME280;57225;61.460;24.060;2023-01-27T06:55:49;101098.34;;;-7.69;100.00
61757;BME280;57225;61.460;24.060;2023-01-27T06:58:37;101099.41;;;-7.71;100.00
61757;BME280;57225;61.460;24.060;2023-01-27T07:01:22;101086.84;;;-7.87;100.00
61757;BME280;57225;61.460;24.060;2023-01-27T07:04:06;101104.78;;;-7.76;100.00
61757;BME280;57225;61.460;24.060;2023-01-27T07:06:51;101110.97;;;-7.80;100.00
61757;BME280;57225;61.460;24.060;2023-01-27T07:09:35;101129.72;;;-7.74;100.00
61757;BME280;57225;61.460;24.060;2023-01-27T07:12:20;101121.59;;;-7.74;100.00
61757;BME280;57225;61.460;24.060;2023-01-27T07:15:06;101122.66;;;-7.75;100.00
61757;BME280;57225;61.460;24.060;2023-01-27T07:17:51;101129.72;;;-7.74;100.00
61757;BME280;57225;61.460;24.060;2023-01-27T07:20:35;101129.91;;;-7.80;100.00
61757;BME280;57225;61.460;24.060;2023-01-27T07:23:20;101140.81;;;-7.70;100.00
61757;BME280;57225;61.460;24.060;2023-01-27T07:26:04;101137.34;;;-7.65;100.00
61757;BME280;57225;61.460;24.060;2023-01-27T07:28:49;101133.56;;;-7.64;100.00
61757;BME280;57225;61.460;24.060;2023-01-27T07:31:33;101136.25;;;-7.64;100.00
61757;BME280;57225;61.460;24.060;2023-01-27T07:34:18;101128.72;;;-7.62;100.00
61757;BME280;57225;61.460;24.060;2023-01-27T07:37:02;101134.16;;;-7.57;100.00
61757;BME280;57225;61.460;24.060;2023-01-27T07:39:48;101127.72;;;-7.51;100.00
61757;BME280;57225;61.460;24.060;2023-01-27T07:42:32;101123.13;;;-7.51;100.00
61757;BME280;57225;61.460;24.060;2023-01-27T07:45:17;101137.50;;;-7.45;100.00
61757;BME280;57225;61.460;24.060;2023-01-27T07:48:06;101143.47;;;-7.43;100.00
61757;BME280;57225;61.460;24.060;2023-01-27T07:50:51;101145.19;;;-7.32;100.00
61757;BME280;57225;61.460;24.060;2023-01-27T07:53:35;101139.28;;;-7.29;100.00
61757;BME280;57225;61.460;24.060;2023-01-27T07:56:20;101139.19;;;-7.39;100.00
61757;BME280;57225;61.460;24.060;2023-01-27T07:59:04;101161.03;;;-7.14;100.00
61757;BME280;57225;61.460;24.060;2023-01-27T08:01:49;101147.84;;;-7.00;100.00
61757;BME280;57225;61.460;24.060;2023-01-27T08:04:33;101142.81;;;-6.81;100.00
61757;BME280;57225;61.460;24.060;2023-01-27T08:07:18;101135.25;;;-6.74;100.00
61757;BME280;57225;61.460;24.060;2023-01-27T08:10:02;101146.94;;;-6.69;100.00
61757;BME280;57225;61.460;24.060;2023-01-27T08:12:47;101150.53;;;-6.58;100.00
61757;BME280;57225;61.460;24.060;2023-01-27T08:15:31;101149.19;;;-6.51;100.00
61757;BME280;57225;61.460;24.060;2023-01-27T08:18:16;101131.06;;;-6.45;100.00
61757;BME280;57225;61.460;24.060;2023-01-27T08:21:04;101150.91;;;-6.34;100.00
61757;BME280;57225;61.460;24.060;2023-01-27T08:23:51;101144.72;;;-6.20;100.00
61757;BME280;57225;61.460;24.060;2023-01-27T08:26:36;101147.19;;;-6.03;100.00
61757;BME280;57225;61.460;24.060;2023-01-27T08:29:20;101144.78;;;-5.94;100.00
61757;BME280;57225;61.460;24.060;2023-01-27T08:32:05;101152.38;;;-5.91;100.00
61757;BME280;57225;61.460;24.060;2023-01-27T08:34:49;101148.28;;;-5.84;100.00
61757;BME280;57225;61.460;24.060;2023-01-27T08:37:34;101156.69;;;-5.75;100.00
61757;BME280;57225;61.460;24.060;2023-01-27T08:40:18;101144.75;;;-5.74;100.00
61757;BME280;57225;61.460;24.060;2023-01-27T08:43:03;101148.03;;;-5.72;100.00
61757;BME280;57225;61.460;24.060;2023-01-27T08:45:50;101148.31;;;-5.63;100.00
61757;BME280;57225;61.460;24.060;2023-01-27T08:48:36;101143.72;;;-5.53;100.00
61757;BME280;57225;61.460;24.060;2023-01-27T08:51:20;101138.03;;;-5.56;100.00
61757;BME280;57225;61.460;24.060;2023-01-27T08:54:05;101132.03;;;-5.53;100.00
61757;BME280;57225;61.460;24.060;2023-01-27T08:56:50;101108.41;;;-5.58;100.00
61757;BME280;57225;61.460;24.060;2023-01-27T08:59:34;101128.50;;;-5.29;100.00
61757;BME280;57225;61.460;24.060;2023-01-27T09:02:19;101128.19;;;-5.12;100.00
61757;BME280;57225;61.460;24.060;2023-01-27T09:05:05;101134.47;;;-5.32;100.00
61757;BME280;57225;61.460;24.060;2023-01-27T09:07:50;101129.84;;;-5.21;100.00
61757;BME280;57225;61.460;24.060;2023-01-27T09:10:39;101139.06;;;-5.07;100.00
61757;BME280;57225;61.460;24.060;2023-01-27T09:13:24;101143.13;;;-5.04;100.00
61757;BME280;57225;61.460;24.060;2023-01-27T09:16:08;101138.25;;;-5.17;100.00
61757;BME280;57225;61.460;24.060;2023-01-27T09:18:53;101132.56;;;-5.26;100.00
61757;BME280;57225;61.460;24.060;2023-01-27T09:21:38;101117.63;;;-5.29;100.00
61757;BME280;57225;61.460;24.060;2023-01-27T09:24:25;101145.84;;;-5.04;100.00
61757;BME280;57225;61.460;24.060;2023-01-27T09:27:09;101134.69;;;-4.98;100.00
61757;BME280;57225;61.460;24.060;2023-01-27T09:29:53;101139.84;;;-4.81;100.00
61757;BME280;57225;61.460;24.060;2023-01-27T09:32:38;101158.22;;;-4.53;100.00
61757;BME280;57225;61.460;24.060;2023-01-27T09:35:23;101163.56;;;-4.22;100.00
61757;BME280;57225;61.460;24.060;2023-01-27T09:38:08;101154.25;;;-4.16;100.00
61757;BME280;57225;61.460;24.060;2023-01-27T09:44:37;101165.13;;;-4.06;100.00
61757;BME280;57225;61.460;24.060;2023-01-27T09:50:42;101158.03;;;-4.07;100.00
61757;BME280;57225;61.460;24.060;2023-01-27T09:56:42;101157.69;;;-3.95;100.00
61757;BME280;57225;61.460;24.060;2023-01-27T09:59:52;101156.03;;;-3.86;100.00
61757;BME280;57225;61.460;24.060;2023-01-27T10:02:56;101165.47;;;-3.74;100.00
61757;BME280;57225;61.460;24.060;2023-01-27T10:21:20;101145.66;;;-3.45;100.00
61757;BME280;57225;61.460;24.060;2023-01-27T10:27:14;101141.56;;;-3.14;100.00
61757;BME280;57225;61.460;24.060;2023-01-27T10:30:13;101142.09;;;-3.12;100.00
61757;BME280;57225;61.460;24.060;2023-01-27T10:33:15;101138.22;;;-3.06;100.00
61757;BME280;57225;61.460;24.060;2023-01-27T10:36:28;101145.56;;;-2.77;100.00
61757;BME280;57225;61.460;24.060;2023-01-27T10:45:44;101136.53;;;-2.73;100.00
61757;BME280;57225;61.460;24.060;2023-01-27T10:49:00;101129.03;;;-2.62;100.00
61757;BME280;57225;61.460;24.060;2023-01-27T10:52:12;101142.72;;;-2.44;100.00
61757;BME280;57225;61.460;24.060;2023-01-27T10:55:12;101143.72;;;-2.34;100.00
61757;BME280;57225;61.460;24.060;2023-01-27T10:58:03;101125.06;;;-2.27;100.00
61757;BME280;57225;61.460;24.060;2023-01-27T11:00:52;101126.75;;;-2.31;100.00
61757;BME280;57225;61.460;24.060;2023-01-27T11:03:43;101126.66;;;-2.69;100.00
61757;BME280;57225;61.460;24.060;2023-01-27T11:06:35;101128.19;;;-2.39;100.00
61757;BME280;57225;61.460;24.060;2023-01-27T11:09:35;101130.31;;;-2.55;100.00
61757;BME280;57225;61.460;24.060;2023-01-27T11:12:28;101126.09;;;-2.23;100.00
61757;BME280;57225;61.460;24.060;2023-01-27T11:18:12;101109.81;;;-2.10;100.00
61757;BME280;57225;61.460;24.060;2023-01-27T11:21:05;101098.91;;;-1.91;100.00
61757;BME280;57225;61.460;24.060;2023-01-27T11:23:54;101107.09;;;-1.72;100.00
61757;BME280;57225;61.460;24.060;2023-01-27T11:26:43;101107.53;;;-1.65;98.41
61757;BME280;57225;61.460;24.060;2023-01-27T11:29:38;101110.81;;;-1.49;98.58
61757;BME280;57225;61.460;24.060;2023-01-27T11:32:40;101107.06;;;-1.53;97.93
61757;BME280;57225;61.460;24.060;2023-01-27T11:35:28;101110.00;;;-1.50;97.60
61757;BME280;57225;61.460;24.060;2023-01-27T11:38:16;101118.16;;;-1.82;94.89
61757;BME280;57225;61.460;24.060;2023-01-27T11:41:02;101111.00;;;-1.78;100.00
61757;BME280;57225;61.460;24.060;2023-01-27T11:43:46;101117.41;;;-1.69;99.01
61757;BME280;57225;61.460;24.060;2023-01-27T11:46:31;101112.09;;;-1.79;97.02
61757;BME280;57225;61.460;24.060;2023-01-27T11:49:22;101118.59;;;-1.75;97.12
61757;BME280;57225;61.460;24.060;2023-01-27T11:52:11;101115.41;;;-2.01;98.20
61757;BME280;57225;61.460;24.060;2023-01-27T11:55:19;101116.66;;;-2.31;99.26
61757;BME280;57225;61.460;24.060;2023-01-27T11:58:21;101116.19;;;-2.38;100.00
61757;BME280;57225;61.460;24.060;2023-01-27T12:07:45;101111.81;;;-2.39;100.00
61757;BME280;57225;61.460;24.060;2023-01-27T12:10:34;101105.25;;;-2.38;100.00
61757;BME280;57225;61.460;24.060;2023-01-27T12:13:24;101122.47;;;-2.37;100.00
61757;BME280;57225;61.460;24.060;2023-01-27T12:16:09;101125.22;;;-2.19;100.00
61757;BME280;57225;61.460;24.060;2023-01-27T12:19:00;101110.91;;;-2.11;100.00
61757;BME280;57225;61.460;24.060;2023-01-27T12:21:50;101107.00;;;-2.23;100.00
61757;BME280;57225;61.460;24.060;2023-01-27T12:24:35;101116.09;;;-2.09;100.00
61757;BME280;57225;61.460;24.060;2023-01-27T12:27:27;101108.69;;;-2.09;100.00
61757;BME280;57225;61.460;24.060;2023-01-27T12:30:40;101114.97;;;-2.08;100.00
61757;BME280;57225;61.460;24.060;2023-01-27T12:33:31;101102.66;;;-2.06;100.00
61757;BME280;57225;61.460;24.060;2023-01-27T12:36:19;101119.94;;;-1.91;100.00
61757;BME280;57225;61.460;24.060;2023-01-27T12:39:24;101115.88;;;-1.94;100.00
61757;BME280;57225;61.460;24.060;2023-01-27T12:42:31;101113.41;;;-1.95;100.00
61757;BME280;57225;61.460;24.060;2023-01-27T12:45:19;101097.72;;;-2.04;100.00
61757;BME280;57225;61.460;24.060;2023-01-27T12:51:34;101091.56;;;-1.95;100.00
61757;BME280;57225;61.460;24.060;2023-01-27T12:54:22;101111.28;;;-1.80;100.00
61757;BME280;57225;61.460;24.060;2023-01-27T12:57:16;101110.47;;;-1.80;100.00
61757;BME280;57225;61.460;24.060;2023-01-27T13:00:02;101103.00;;;-1.75;100.00
61757;BME280;57225;61.460;24.060;2023-01-27T13:02:47;101105.22;;;-1.95;100.00
61757;BME280;57225;61.460;24.060;2023-01-27T13:05:37;101111.06;;;-1.83;100.00
61757;BME280;57225;61.460;24.060;2023-01-27T13:08:23;101083.97;;;-1.98;100.00
61757;BME280;57225;61.460;24.060;2023-01-27T13:11:09;101088.03;;;-1.96;100.00
61757;BME280;57225;61.460;24.060;2023-01-27T13:13:56;101103.53;;;-2.10;100.00
61757;BME280;57225;61.460;24.060;2023-01-27T13:16:40;101082.53;;;-2.33;100.00
61757;BME280;57225;61.460;24.060;2023-01-27T13:19:36;101105.00;;;-2.18;100.00
61757;BME280;57225;61.460;24.060;2023-01-27T13:22:23;101089.28;;;-2.26;100.00
61757;BME280;57225;61.460;24.060;2023-01-27T13:25:18;101089.34;;;-2.31;100.00
61757;BME280;57225;61.460;24.060;2023-01-27T13:28:06;101093.19;;;-2.32;100.00
61757;BME280;57225;61.460;24.060;2023-01-27T13:30:54;101093.31;;;-2.42;100.00
61757;BME280;57225;61.460;24.060;2023-01-27T13:33:54;101082.59;;;-2.57;100.00
61757;BME280;57225;61.460;24.060;2023-01-27T13:36:44;101074.28;;;-2.71;100.00
61757;BME280;57225;61.460;24.060;2023-01-27T13:43:12;101084.66;;;-2.97;100.00
61757;BME280;57225;61.460;24.060;2023-01-27T13:46:16;101073.88;;;-3.07;100.00
61757;BME280;57225;61.460;24.060;2023-01-27T13:49:30;101075.56;;;-3.11;100.00
61757;BME280;57225;61.460;24.060;2023-01-27T13:52:15;101079.47;;;-3.22;100.00
61757;BME280;57225;61.460;24.060;2023-01-27T13:54:59;101062.69;;;-3.34;100.00
61757;BME280;57225;61.460;24.060;2023-01-27T13:58:22;101071.47;;;-3.37;100.00
61757;BME280;57225;61.460;24.060;2023-01-27T14:10:37;101073.28;;;-3.56;100.00
61757;BME280;57225;61.460;24.060;2023-01-27T14:13:40;101073.84;;;-3.59;100.00
61757;BME280;57225;61.460;24.060;2023-01-27T14:22:43;101073.50;;;-3.53;100.00
61757;BME280;57225;61.460;24.060;2023-01-27T14:31:22;101061.78;;;-3.53;100.00
61757;BME280;57225;61.460;24.060;2023-01-27T14:34:57;101062.53;;;-3.43;100.00
61757;BME280;57225;61.460;24.060;2023-01-27T14:37:31;101052.94;;;-3.35;100.00
61757;BME280;57225;61.460;24.060;2023-01-27T14:40:39;101050.72;;;-3.33;100.00
61757;BME280;57225;61.460;24.060;2023-01-27T14:43:48;101045.44;;;-3.25;100.00
61757;BME280;57225;61.460;24.060;2023-01-27T14:50:11;101061.53;;;-3.23;100.00
61757;BME280;57225;61.460;24.060;2023-01-27T15:03:38;101061.28;;;-3.27;100.00
61757;BME280;57225;61.460;24.060;2023-01-27T15:09:12;101056.88;;;-3.22;100.00
61757;BME280;57225;61.460;24.060;2023-01-27T15:26:43;101020.09;;;-3.25;100.00
61757;BME280;57225;61.460;24.060;2023-01-27T15:29:30;101024.94;;;-3.17;100.00
61757;BME280;57225;61.460;24.060;2023-01-27T15:41:11;101012.66;;;-2.96;100.00
61757;BME280;57225;61.460;24.060;2023-01-27T15:44:28;101016.38;;;-2.87;100.00
61757;BME280;57225;61.460;24.060;2023-01-27T15:47:22;101029.50;;;-2.89;100.00
61757;BME280;57225;61.460;24.060;2023-01-27T15:50:18;101027.69;;;-2.74;100.00
61757;BME280;57225;61.460;24.060;2023-01-27T15:53:14;101036.44;;;-2.77;100.00
61757;BME280;57225;61.460;24.060;2023-01-27T15:56:00;101025.38;;;-2.86;100.00
61757;BME280;57225;61.460;24.060;2023-01-27T15:58:55;101023.88;;;-2.73;100.00
61757;BME280;57225;61.460;24.060;2023-01-27T16:01:41;101032.06;;;-2.73;100.00
61757;BME280;57225;61.460;24.060;2023-01-27T16:04:27;101022.22;;;-2.74;100.00
61757;BME280;57225;61.460;24.060;2023-01-27T16:07:21;101026.34;;;-2.77;100.00
61757;BME280;57225;61.460;24.060;2023-01-27T16:10:16;101041.06;;;-2.54;100.00
61757;BME280;57225;61.460;24.060;2023-01-27T16:13:33;101021.31;;;-2.46;100.00
61757;BME280;57225;61.460;24.060;2023-01-27T16:19:16;101025.19;;;-2.52;100.00
61757;BME280;57225;61.460;24.060;2023-01-27T16:22:04;101017.84;;;-2.52;100.00
61757;BME280;57225;61.460;24.060;2023-01-27T16:25:16;101029.06;;;-2.53;100.00
61757;BME280;57225;61.460;24.060;2023-01-27T16:28:10;101029.56;;;-2.51;100.00
61757;BME280;57225;61.460;24.060;2023-01-27T16:33:45;101014.50;;;-2.67;100.00
61757;BME280;57225;61.460;24.060;2023-01-27T16:36:34;101030.41;;;-2.74;100.00
61757;BME280;57225;61.460;24.060;2023-01-27T16:40:02;101017.81;;;-2.70;100.00
61757;BME280;57225;61.460;24.060;2023-01-27T16:45:49;101016.25;;;-2.76;100.00
61757;BME280;57225;61.460;24.060;2023-01-27T16:48:41;101003.66;;;-2.72;100.00
61757;BME280;57225;61.460;24.060;2023-01-27T16:51:28;101019.59;;;-2.61;100.00